createdAt,value
2022-10-11T00:01:39.059Z,12.67
2022-10-11T00:04:08.222Z,12.63
2022-10-11T00:10:11.383Z,12.50
2022-10-11T00:12:39.476Z,12.54
2022-10-11T00:15:09.583Z,12.52
2022-10-11T00:17:37.864Z,12.54
2022-10-11T00:20:06.707Z,12.52
2022-10-11T00:22:38.244Z,12.51
2022-10-11T00:25:08.252Z,12.52
2022-10-11T00:27:40.390Z,12.51
2022-10-11T00:30:09.919Z,12.48
2022-10-11T00:32:40.612Z,12.44
2022-10-11T00:35:10.906Z,12.39
2022-10-11T00:37:40.517Z,12.42
2022-10-11T00:40:13.666Z,12.38
2022-10-11T00:42:43.323Z,12.34
2022-10-11T00:45:59.697Z,12.37
2022-10-11T00:48:37.408Z,12.32
2022-10-11T00:51:15.025Z,12.31
2022-10-11T00:53:43.878Z,12.31
2022-10-11T00:56:21.622Z,12.26
2022-10-11T00:58:52.819Z,12.25
2022-10-11T01:01:21.118Z,12.24
2022-10-11T01:03:49.227Z,12.21
2022-10-11T01:06:20.154Z,12.18
2022-10-11T01:08:52.529Z,12.15
2022-10-11T01:11:28.129Z,12.08
2022-10-11T01:14:24.700Z,12.05
2022-10-11T01:17:00.863Z,12.03
2022-10-11T01:19:46.809Z,11.98
2022-10-11T01:22:35.159Z,11.96
2022-10-11T01:25:16.200Z,11.96
2022-10-11T01:28:17.062Z,11.92
2022-10-11T01:30:47.424Z,11.84
2022-10-11T01:33:28.556Z,11.82
2022-10-11T01:36:07.929Z,11.84
2022-10-11T01:38:45.660Z,11.80
2022-10-11T01:41:19.970Z,11.79
2022-10-11T01:43:49.666Z,11.79
2022-10-11T01:46:22.983Z,11.76
2022-10-11T01:48:52.614Z,11.70
2022-10-11T01:51:27.020Z,11.68
2022-10-11T01:54:12.275Z,11.70
2022-10-11T01:56:58.017Z,11.70
2022-10-11T01:59:43.134Z,11.69
2022-10-11T02:02:29.479Z,11.68
2022-10-11T02:05:07.155Z,11.68
2022-10-11T02:07:45.688Z,11.70
2022-10-11T02:10:22.289Z,11.62
2022-10-11T02:12:55.475Z,11.57
2022-10-11T02:15:24.275Z,11.52
2022-10-11T02:17:58.060Z,11.45
2022-10-11T02:20:29.881Z,11.45
2022-10-11T02:23:02.358Z,11.43
2022-10-11T02:25:35.839Z,11.40
2022-10-11T02:28:05.694Z,11.38
2022-10-11T02:30:36.242Z,11.40
2022-10-11T02:33:09.299Z,11.43
2022-10-11T02:35:46.109Z,11.42
2022-10-11T02:38:21.668Z,11.39
2022-10-11T02:40:57.759Z,11.39
2022-10-11T02:43:30.636Z,11.37
2022-10-11T02:46:01.568Z,11.36
2022-10-11T02:48:33.659Z,11.33
2022-10-11T02:51:01.799Z,11.33
2022-10-11T02:53:29.991Z,11.34
2022-10-11T02:55:58.191Z,11.36
2022-10-11T02:58:29.244Z,11.30
2022-10-11T03:00:59.739Z,11.34
2022-10-11T03:03:28.580Z,11.37
2022-10-11T03:06:01.687Z,11.39
2022-10-11T03:08:33.059Z,11.40
2022-10-11T03:11:01.513Z,11.37
2022-10-11T03:13:29.799Z,11.39
2022-10-11T03:16:03.398Z,11.38
2022-10-11T03:18:32.683Z,11.39
2022-10-11T03:21:02.390Z,11.35
2022-10-11T03:23:30.855Z,11.32
2022-10-11T03:25:59.103Z,11.28
2022-10-11T03:28:27.530Z,11.29
2022-10-11T03:30:56.083Z,11.29
2022-10-11T03:33:24.690Z,11.29
2022-10-11T03:35:53.272Z,11.29
2022-10-11T03:38:23.910Z,11.33
2022-10-11T03:40:52.520Z,11.30
2022-10-11T03:43:20.743Z,11.29
2022-10-11T03:45:51.235Z,11.33
2022-10-11T03:48:19.600Z,11.34
2022-10-11T03:50:47.775Z,11.37
2022-10-11T03:53:22.599Z,11.33
2022-10-11T03:55:53.836Z,11.33
2022-10-11T03:58:22.422Z,11.34
2022-10-11T04:00:50.751Z,11.31
2022-10-11T04:03:18.850Z,11.30
2022-10-11T04:05:49.553Z,11.26
2022-10-11T04:08:31.043Z,11.21
2022-10-11T04:10:59.289Z,11.16
2022-10-11T04:13:27.491Z,11.15
2022-10-11T04:16:00.431Z,11.12
2022-10-11T04:18:28.569Z,11.13
2022-10-11T04:20:56.657Z,11.10
2022-10-11T04:23:26.879Z,11.06
2022-10-11T04:25:56.286Z,10.91
2022-10-11T04:28:27.333Z,10.89
2022-10-11T04:30:55.356Z,11.04
2022-10-11T04:33:23.543Z,11.01
2022-10-11T04:35:54.989Z,10.83
2022-10-11T04:38:23.265Z,10.94
2022-10-11T04:40:51.477Z,10.89
2022-10-11T04:43:21.080Z,10.86
2022-10-11T04:45:55.334Z,10.83
2022-10-11T04:48:25.901Z,10.68
2022-10-11T04:50:54.177Z,10.70
2022-10-11T04:53:22.325Z,10.61
2022-10-11T04:56:01.737Z,10.51
2022-10-11T04:58:33.094Z,10.48
2022-10-11T05:01:01.417Z,10.42
2022-10-11T05:03:29.417Z,10.34
2022-10-11T05:05:59.985Z,10.28
2022-10-11T05:11:15.944Z,10.04
2022-10-11T05:13:45.712Z,9.98
2022-10-11T05:16:14.633Z,9.88
2022-10-11T05:18:45.841Z,9.78
2022-10-11T05:21:17.460Z,9.73
2022-10-11T05:23:46.027Z,9.64
2022-10-11T05:26:15.579Z,9.56
2022-10-11T05:28:44.143Z,9.49
2022-10-11T05:31:12.589Z,9.45
2022-10-11T05:33:43.859Z,9.41
2022-10-11T05:36:14.253Z,9.37
2022-10-11T05:38:45.669Z,9.30
2022-10-11T05:41:16.743Z,9.22
2022-10-11T05:43:47.665Z,9.14
2022-10-11T05:46:16.208Z,8.88
2022-10-11T05:48:44.316Z,9.08
2022-10-11T05:51:13.555Z,9.02
2022-10-11T05:53:43.844Z,9.03
2022-10-11T05:56:22.500Z,9.02
2022-10-11T05:58:51.075Z,9.03
2022-10-11T06:01:22.818Z,8.99
2022-10-11T06:03:51.513Z,9.01
2022-10-11T06:06:20.719Z,9.04
2022-10-11T06:08:51.003Z,9.05
2022-10-11T06:11:23.625Z,8.99
2022-10-11T06:13:54.537Z,9.05
2022-10-11T06:16:23.188Z,9.01
2022-10-11T06:18:53.737Z,9.02
2022-10-11T06:21:21.925Z,9.00
2022-10-11T06:23:53.000Z,9.04
2022-10-11T06:26:25.042Z,8.98
2022-10-11T06:28:54.040Z,8.96
2022-10-11T06:31:22.427Z,8.93
2022-10-11T06:33:50.797Z,8.97
2022-10-11T06:36:18.980Z,8.97
2022-10-11T06:38:47.640Z,8.97
2022-10-11T06:41:18.977Z,8.92
2022-10-11T06:43:49.560Z,8.98
2022-10-11T06:46:22.712Z,9.05
2022-10-11T06:48:51.674Z,9.11
2022-10-11T06:51:21.981Z,9.16
2022-10-11T06:53:51.658Z,9.24
2022-10-11T06:56:22.947Z,9.36
2022-10-11T06:58:53.895Z,9.54
2022-10-11T07:01:23.943Z,9.57
2022-10-11T07:03:54.264Z,9.60
2022-10-11T07:06:27.655Z,9.64
2022-10-11T07:08:55.995Z,9.88
2022-10-11T07:11:26.100Z,10.16
2022-10-11T07:13:57.436Z,10.31
2022-10-11T07:16:26.508Z,10.62
2022-10-11T07:19:00.146Z,11.06
2022-10-11T07:21:30.392Z,11.74
2022-10-11T07:24:01.518Z,12.45
2022-10-11T07:26:38.214Z,12.65
2022-10-11T07:29:10.541Z,12.91
2022-10-11T07:31:40.722Z,12.49
2022-10-11T07:34:12.247Z,12.69
2022-10-11T07:36:40.531Z,12.68
2022-10-11T07:39:09.804Z,13.47
2022-10-11T07:41:44.767Z,12.89
2022-10-11T07:44:15.513Z,12.45
2022-10-11T07:46:43.930Z,12.02
2022-10-11T07:49:12.088Z,11.48
2022-10-11T07:51:40.272Z,11.28
2022-10-11T07:54:08.461Z,11.05
2022-10-11T07:56:41.085Z,11.04
2022-10-11T07:59:09.398Z,10.98
2022-10-11T08:01:38.917Z,11.03
2022-10-11T08:04:07.266Z,10.87
2022-10-11T08:06:36.617Z,10.97
2022-10-11T08:09:05.599Z,11.30
2022-10-11T08:11:36.333Z,11.10
2022-10-11T08:14:08.709Z,11.09
2022-10-11T08:16:39.411Z,11.23
2022-10-11T08:19:11.383Z,11.40
2022-10-11T08:21:39.607Z,11.20
2022-10-11T08:24:08.927Z,11.11
2022-10-11T08:26:37.354Z,11.01
2022-10-11T08:29:05.563Z,10.69
2022-10-11T08:31:34.911Z,10.52
2022-10-11T08:34:04.572Z,10.38
2022-10-11T08:36:33.199Z,10.33
2022-10-11T08:39:05.093Z,10.37
2022-10-11T08:41:40.440Z,10.49
2022-10-11T08:45:05.563Z,10.73
2022-10-11T08:47:48.485Z,11.47
2022-10-11T08:50:21.622Z,12.05
2022-10-11T08:52:54.596Z,11.93
2022-10-11T08:55:27.278Z,12.20
2022-10-11T08:57:57.480Z,12.27
2022-10-11T09:00:31.805Z,12.13
2022-10-11T09:03:09.286Z,13.26
2022-10-11T09:05:55.747Z,13.54
2022-10-11T09:08:30.827Z,13.14
2022-10-11T09:11:11.384Z,13.38
2022-10-11T09:13:58.247Z,13.98
2022-10-11T09:16:35.842Z,14.65
2022-10-11T09:19:23.472Z,14.86
2022-10-11T09:22:04.825Z,14.85
2022-10-11T09:24:48.229Z,14.93
2022-10-11T09:27:33.183Z,14.48
2022-10-11T09:30:14.612Z,15.49
2022-10-11T09:32:47.678Z,16.45
2022-10-11T09:35:18.704Z,16.46
2022-10-11T09:37:57.798Z,16.35
2022-10-11T09:40:40.272Z,15.91
2022-10-11T09:43:11.458Z,15.35
2022-10-11T09:45:49.196Z,14.20
2022-10-11T09:48:24.672Z,15.01
2022-10-11T09:51:00.076Z,16.50
2022-10-11T09:53:58.838Z,16.73
2022-10-11T09:56:29.295Z,16.94
2022-10-11T09:59:25.117Z,16.54
2022-10-11T10:02:17.720Z,16.26
2022-10-11T10:05:19.805Z,16.15
2022-10-11T10:08:05.018Z,17.83
2022-10-11T10:12:15.127Z,16.86
2022-10-11T10:14:43.204Z,17.17
2022-10-11T10:17:17.390Z,18.50
2022-10-11T10:19:51.739Z,17.53
2022-10-11T10:22:22.239Z,16.56
2022-10-11T10:24:52.497Z,17.29
2022-10-11T10:27:26.270Z,17.16
2022-10-11T10:30:04.749Z,17.43
2022-10-11T10:32:43.787Z,17.25
2022-10-11T10:35:23.156Z,16.81
2022-10-11T10:37:56.828Z,17.21
2022-10-11T10:40:32.504Z,16.93
2022-10-11T10:43:02.124Z,16.29
2022-10-11T10:45:40.773Z,17.04
2022-10-11T10:48:20.301Z,18.64
2022-10-11T10:50:55.706Z,18.30
2022-10-11T10:53:30.681Z,17.44
2022-10-11T10:56:08.491Z,16.75
2022-10-11T10:59:04.178Z,16.52
2022-10-11T11:01:34.448Z,16.90
2022-10-11T11:04:19.783Z,17.48
2022-10-11T11:06:53.440Z,18.90
2022-10-11T11:09:32.164Z,19.25
2022-10-11T11:12:14.983Z,20.35
2022-10-11T11:14:56.482Z,21.76
2022-10-11T11:17:39.800Z,21.61
2022-10-11T11:20:25.756Z,21.83
2022-10-11T11:23:00.596Z,21.53
2022-10-11T11:25:40.311Z,21.03
2022-10-11T11:28:33.735Z,21.11
2022-10-11T11:31:11.934Z,21.31
2022-10-11T11:33:49.111Z,21.18
2022-10-11T11:36:23.241Z,20.82
2022-10-11T11:38:57.872Z,20.28
2022-10-11T11:41:31.965Z,20.67
2022-10-11T11:44:04.170Z,21.01
2022-10-11T11:46:36.951Z,21.01
2022-10-11T11:49:13.060Z,21.38
2022-10-11T11:51:45.261Z,21.13
2022-10-11T11:54:22.859Z,20.78
2022-10-11T11:57:02.714Z,20.73
2022-10-11T11:59:36.764Z,20.77
2022-10-11T12:02:31.152Z,20.49
2022-10-11T12:05:31.271Z,21.26
2022-10-11T12:08:01.935Z,20.50
2022-10-11T12:10:38.334Z,20.71
2022-10-11T12:13:17.888Z,19.23
2022-10-11T12:15:59.142Z,18.01
2022-10-11T12:18:30.867Z,17.52
2022-10-11T12:21:05.617Z,17.09
2022-10-11T12:23:48.710Z,17.44
2022-10-11T12:26:32.987Z,16.90
2022-10-11T12:29:46.836Z,16.59
2022-10-11T12:32:55.293Z,16.68
2022-10-11T12:35:51.373Z,17.02
2022-10-11T12:38:24.284Z,16.66
2022-10-11T12:40:54.638Z,16.54
2022-10-11T12:43:58.046Z,16.18
2022-10-11T12:46:43.188Z,16.00
2022-10-11T12:49:32.383Z,15.87
2022-10-11T12:52:03.731Z,15.93
2022-10-11T12:54:56.888Z,15.79
2022-10-11T12:57:51.472Z,15.84
2022-10-11T13:00:29.130Z,15.93
2022-10-11T13:03:02.923Z,15.79
2022-10-11T13:05:38.427Z,15.72
2022-10-11T13:08:14.675Z,15.63
2022-10-11T13:10:47.410Z,15.86
2022-10-11T13:13:22.540Z,15.75
2022-10-11T13:15:53.023Z,15.66
2022-10-11T13:18:27.305Z,15.65
2022-10-11T13:20:55.427Z,15.87
2022-10-11T13:23:25.735Z,15.90
2022-10-11T13:25:55.498Z,15.86
2022-10-11T13:28:24.704Z,15.77
2022-10-11T13:30:58.235Z,15.66
2022-10-11T13:33:32.187Z,15.53
2022-10-11T13:36:01.666Z,15.48
2022-10-11T13:38:31.801Z,15.38
2022-10-11T13:41:02.474Z,15.45
2022-10-11T13:43:32.134Z,15.33
2022-10-11T13:46:03.041Z,15.12
2022-10-11T13:48:32.836Z,15.24
2022-10-11T13:51:29.347Z,15.27
2022-10-11T13:53:58.743Z,15.05
2022-10-11T13:56:51.445Z,15.17
2022-10-11T13:59:21.437Z,15.23
2022-10-11T14:01:53.145Z,15.33
2022-10-11T14:04:25.056Z,15.17
2022-10-11T14:07:00.163Z,15.13
2022-10-11T14:09:31.012Z,15.27
2022-10-11T14:12:31.813Z,15.17
2022-10-11T14:15:00.515Z,15.16
2022-10-11T14:17:40.882Z,14.91
2022-10-11T14:20:18.382Z,14.90
2022-10-11T14:22:46.679Z,14.84
2022-10-11T14:25:14.853Z,14.88
2022-10-11T14:27:45.247Z,14.83
2022-10-11T14:30:27.342Z,14.81
2022-10-11T14:33:12.323Z,14.82
2022-10-11T14:35:43.339Z,14.91
2022-10-11T14:38:12.857Z,14.71
2022-10-11T14:40:43.600Z,14.71
2022-10-11T14:43:11.732Z,14.68
2022-10-11T14:45:39.618Z,14.63
2022-10-11T14:48:08.064Z,14.55
2022-10-11T14:50:41.507Z,14.58
2022-10-11T14:53:12.464Z,14.65
2022-10-11T14:55:44.425Z,14.68
2022-10-11T14:58:16.470Z,14.65
2022-10-11T15:00:45.077Z,14.52
2022-10-11T15:03:15.458Z,14.40
2022-10-11T15:05:43.575Z,14.42
2022-10-11T15:08:15.930Z,14.39
2022-10-11T15:13:11.293Z,14.26
2022-10-11T15:15:41.312Z,14.23
2022-10-11T15:18:13.855Z,14.16
2022-10-11T15:20:44.531Z,14.00
2022-10-11T15:23:13.227Z,13.95
2022-10-11T15:25:42.489Z,13.92
2022-10-11T15:28:20.813Z,13.86
2022-10-11T15:30:49.821Z,13.82
2022-10-11T15:33:17.928Z,13.76
2022-10-11T15:35:46.052Z,13.72
2022-10-11T15:38:18.079Z,13.68
2022-10-11T15:40:47.275Z,13.65
2022-10-11T15:43:24.249Z,13.58
2022-10-11T15:45:52.903Z,13.57
2022-10-11T15:48:22.853Z,13.53
2022-10-11T15:50:51.662Z,13.52
2022-10-11T15:53:21.991Z,13.48
2022-10-11T15:55:57.932Z,13.45
2022-10-11T15:58:29.965Z,13.41
2022-10-11T16:01:00.376Z,13.39
2022-10-11T16:03:30.302Z,13.33
2022-10-11T16:06:04.661Z,13.31
2022-10-11T16:08:35.091Z,13.28
2022-10-11T16:11:03.632Z,13.17
2022-10-11T16:13:33.196Z,13.19
2022-10-11T16:16:05.085Z,13.11
2022-10-11T16:18:36.288Z,13.13
2022-10-11T16:21:08.099Z,13.06
2022-10-11T16:23:41.078Z,12.97
2022-10-11T16:26:13.940Z,12.88
2022-10-11T16:28:43.898Z,12.82
2022-10-11T16:31:16.705Z,12.80
2022-10-11T16:33:46.606Z,12.71
2022-10-11T16:36:36.701Z,12.72
2022-10-11T16:39:08.533Z,12.62
2022-10-11T16:42:15.439Z,12.61
2022-10-11T16:44:45.074Z,12.56
2022-10-11T16:47:13.240Z,12.49
2022-10-11T16:49:41.228Z,12.49
2022-10-11T16:52:10.826Z,12.35
2022-10-11T16:54:44.425Z,12.32
2022-10-11T16:57:32.670Z,12.26
2022-10-11T17:00:02.395Z,12.15
2022-10-11T17:02:32.734Z,12.07
2022-10-11T17:05:03.902Z,11.97
2022-10-11T17:07:32.703Z,11.96
2022-10-11T17:10:01.071Z,11.90
2022-10-11T17:12:37.254Z,11.84
2022-10-11T17:15:08.454Z,11.69
2022-10-11T17:17:38.964Z,11.55
2022-10-11T17:20:09.700Z,11.47
2022-10-11T17:22:37.825Z,11.39
2022-10-11T17:25:07.075Z,11.30
2022-10-11T17:27:35.045Z,11.31
2022-10-11T17:30:08.157Z,11.26
2022-10-11T17:32:36.125Z,11.16
2022-10-11T17:35:08.062Z,11.09
2022-10-11T17:37:36.344Z,11.07
2022-10-11T17:40:10.564Z,10.90
2022-10-11T17:42:57.461Z,10.86
2022-10-11T17:45:27.275Z,10.89
2022-10-11T17:47:56.416Z,10.84
2022-10-11T17:50:24.492Z,10.86
2022-10-11T17:53:15.314Z,10.79
2022-10-11T17:55:43.733Z,10.71
2022-10-11T17:58:14.365Z,10.67
2022-10-11T18:01:02.388Z,10.60
2022-10-11T18:03:30.656Z,10.62
2022-10-11T18:05:58.796Z,10.62
2022-10-11T18:08:26.986Z,10.54
2022-10-11T18:10:54.949Z,10.47
2022-10-11T18:13:23.040Z,10.35
2022-10-11T18:15:53.579Z,10.26
2022-10-11T18:18:28.693Z,10.14
2022-10-11T18:21:00.584Z,10.14
2022-10-11T18:23:28.696Z,10.13
2022-10-11T18:26:23.517Z,10.05
2022-10-11T18:28:56.211Z,10.02
2022-10-11T18:31:26.596Z,10.05
2022-10-11T18:33:59.123Z,9.99
2022-10-11T18:36:30.406Z,9.92
2022-10-11T18:39:02.416Z,9.94
2022-10-11T18:41:32.282Z,9.91
2022-10-11T18:44:02.300Z,9.80
2022-10-11T18:46:31.568Z,9.76
2022-10-11T18:49:02.398Z,9.77
2022-10-11T18:51:32.160Z,9.77
2022-10-11T18:54:01.138Z,9.76
2022-10-11T18:56:32.976Z,9.77
2022-10-11T18:59:01.510Z,9.76
2022-10-11T19:01:32.269Z,9.74
2022-10-11T19:04:03.366Z,9.68
2022-10-11T19:06:35.876Z,9.65
2022-10-11T19:09:06.471Z,9.66
2022-10-11T19:11:34.916Z,9.60
2022-10-11T19:14:06.904Z,9.58
2022-10-11T19:16:37.580Z,9.54
2022-10-11T19:19:08.029Z,9.47
2022-10-11T19:21:36.787Z,9.41
2022-10-11T19:24:32.530Z,9.35
2022-10-11T19:27:02.731Z,9.27
2022-10-11T19:29:34.496Z,9.18
2022-10-11T19:32:04.032Z,9.14
2022-10-11T19:34:33.690Z,9.11
2022-10-11T19:37:03.371Z,9.07
2022-10-11T19:39:31.824Z,8.98
2022-10-11T19:42:02.610Z,8.95
2022-10-11T19:44:33.428Z,8.78
2022-10-11T19:47:05.437Z,8.84
2022-10-11T19:49:37.673Z,8.74
2022-10-11T19:52:05.695Z,8.64
2022-10-11T19:54:33.663Z,8.70
2022-10-11T19:57:01.982Z,8.59
2022-10-11T19:59:30.086Z,8.57
2022-10-11T20:01:58.057Z,8.51
2022-10-11T20:07:18.742Z,8.47
2022-10-11T20:09:49.128Z,8.42
2022-10-11T20:14:12.568Z,8.28
2022-10-11T20:16:42.619Z,8.31
2022-10-11T20:19:10.859Z,8.31
2022-10-11T20:21:41.907Z,8.30
2022-10-11T20:24:10.585Z,8.26
2022-10-11T20:26:39.151Z,8.29
2022-10-11T20:29:08.061Z,8.28
2022-10-11T20:31:40.767Z,8.34
2022-10-11T20:34:10.110Z,8.31
2022-10-11T20:37:01.673Z,8.33
2022-10-11T20:39:29.665Z,8.32
2022-10-11T20:41:57.653Z,8.34
2022-10-11T20:44:28.452Z,8.34
2022-10-11T20:47:03.011Z,8.33
2022-10-11T20:49:32.155Z,8.39
2022-10-11T20:52:00.106Z,8.34
2022-10-11T20:54:29.746Z,8.34
2022-10-11T20:56:58.027Z,8.31
2022-10-11T20:59:26.187Z,8.31
2022-10-11T21:01:54.491Z,8.31
2022-10-11T21:04:23.906Z,8.28
2022-10-11T21:06:52.018Z,8.26
2022-10-11T21:09:20.100Z,8.26
2022-10-11T21:11:48.332Z,8.22
2022-10-11T21:14:17.170Z,8.18
2022-10-11T21:16:45.370Z,8.15
2022-10-11T21:19:15.953Z,8.10
2022-10-11T21:21:51.141Z,8.06
2022-10-11T21:24:21.361Z,8.06
2022-10-11T21:27:10.397Z,8.02
2022-10-11T21:29:40.551Z,8.03
2022-10-11T21:32:12.150Z,8.01
2022-10-11T21:34:44.937Z,7.96
2022-10-11T21:37:14.474Z,7.93
2022-10-11T21:39:42.532Z,7.93
2022-10-11T21:42:13.511Z,7.89
2022-10-11T21:44:43.300Z,7.87
2022-10-11T21:47:14.133Z,7.84
2022-10-11T21:49:42.116Z,7.84
2022-10-11T21:52:10.760Z,7.86
2022-10-11T21:54:40.224Z,7.84
2022-10-11T21:57:10.354Z,7.84
2022-10-11T21:59:45.451Z,7.77
2022-10-11T22:02:14.145Z,7.75
2022-10-11T22:04:47.533Z,7.74
2022-10-11T22:07:15.708Z,7.76
2022-10-11T22:09:45.091Z,7.78
2022-10-11T22:12:15.385Z,7.74
2022-10-11T22:14:43.579Z,7.75
2022-10-11T22:17:13.601Z,7.76
2022-10-11T22:19:41.692Z,7.75
2022-10-11T22:22:09.699Z,7.77
2022-10-11T22:24:39.747Z,7.77
2022-10-11T22:27:09.386Z,7.77
2022-10-11T22:29:37.395Z,7.82
2022-10-11T22:32:05.612Z,7.88
2022-10-11T22:34:38.659Z,7.81
2022-10-11T22:37:11.353Z,7.77
2022-10-11T22:39:39.887Z,7.80
2022-10-11T22:42:09.219Z,7.79
2022-10-11T22:44:40.388Z,7.81
2022-10-11T22:47:08.458Z,7.84
2022-10-11T22:49:36.350Z,7.85
2022-10-11T22:52:04.508Z,7.89
2022-10-11T22:54:32.425Z,7.90
2022-10-11T22:57:00.547Z,7.92
2022-10-11T22:59:32.150Z,7.91
2022-10-11T23:02:02.898Z,7.89
2022-10-11T23:04:31.184Z,7.89
2022-10-11T23:07:05.002Z,7.88
2022-10-11T23:09:33.370Z,7.89
2022-10-11T23:12:01.323Z,7.92
2022-10-11T23:14:36.974Z,7.94
2022-10-11T23:17:07.046Z,7.96
2022-10-11T23:19:36.919Z,7.95
2022-10-11T23:22:07.100Z,7.97
2022-10-11T23:24:35.162Z,7.97
2022-10-11T23:27:03.039Z,7.98
2022-10-11T23:29:31.800Z,7.98
2022-10-11T23:32:01.224Z,8.01
2022-10-11T23:34:29.193Z,8.02
2022-10-11T23:36:57.102Z,8.12
2022-10-11T23:39:30.882Z,8.13
2022-10-11T23:41:58.970Z,8.19
2022-10-11T23:44:26.844Z,8.20
2022-10-11T23:46:55.008Z,8.19
2022-10-11T23:49:24.303Z,8.23
2022-10-11T23:51:52.416Z,8.25
2022-10-11T23:54:20.423Z,8.30
2022-10-11T23:56:48.398Z,8.27
2022-10-11T23:59:28.537Z,8.22
